sensor_id;sensor_type;location;lat;lon;timestamp;P1;durP1;ratioP1;P2;durP2;ratioP2
12312;SDS011;6220;53.580;9.758;2024-03-17T00:01:37;12.90;;;3.53;;
12312;SDS011;6220;53.580;9.758;2024-03-17T00:04:02;17.53;;;4.30;;
12312;SDS011;6220;53.580;9.758;2024-03-17T00:06:28;12.80;;;3.40;;
12312;SDS011;6220;53.580;9.758;2024-03-17T00:08:54;16.00;;;3.70;;
12312;SDS011;6220;53.580;9.758;2024-03-17T00:11:20;16.17;;;3.70;;
12312;SDS011;6220;53.580;9.758;2024-03-17T00:13:45;16.90;;;3.93;;
12312;SDS011;6220;53.580;9.758;2024-03-17T00:16:11;15.20;;;4.50;;
12312;SDS011;6220;53.580;9.758;2024-03-17T00:18:38;15.67;;;4.00;;
12312;SDS011;6220;53.580;9.758;2024-03-17T00:21:05;14.07;;;3.60;;
12312;SDS011;6220;53.580;9.758;2024-03-17T00:23:31;14.87;;;4.00;;
12312;SDS011;6220;53.580;9.758;2024-03-17T00:25:57;13.73;;;3.40;;
12312;SDS011;6220;53.580;9.758;2024-03-17T00:28:22;16.70;;;4.13;;
12312;SDS011;6220;53.580;9.758;2024-03-17T00:30:48;21.60;;;6.80;;
12312;SDS011;6220;53.580;9.758;2024-03-17T00:33:13;16.47;;;5.57;;
12312;SDS011;6220;53.580;9.758;2024-03-17T00:35:39;15.17;;;3.80;;
12312;SDS011;6220;53.580;9.758;2024-03-17T00:38:04;16.53;;;4.13;;
12312;SDS011;6220;53.580;9.758;2024-03-17T00:40:35;16.40;;;3.43;;
12312;SDS011;6220;53.580;9.758;2024-03-17T00:43:03;15.47;;;3.70;;
12312;SDS011;6220;53.580;9.758;2024-03-17T00:45:29;14.67;;;4.40;;
12312;SDS011;6220;53.580;9.758;2024-03-17T00:47:54;15.70;;;4.00;;
12312;SDS011;6220;53.580;9.758;2024-03-17T00:50:19;14.37;;;3.73;;
12312;SDS011;6220;53.580;9.758;2024-03-17T00:52:45;13.70;;;3.30;;
12312;SDS011;6220;53.580;9.758;2024-03-17T00:55:10;16.67;;;3.77;;
12312;SDS011;6220;53.580;9.758;2024-03-17T00:57:36;18.47;;;4.40;;
12312;SDS011;6220;53.580;9.758;2024-03-17T01:00:02;23.03;;;6.50;;
12312;SDS011;6220;53.580;9.758;2024-03-17T01:02:29;16.80;;;4.00;;
12312;SDS011;6220;53.580;9.758;2024-03-17T01:04:54;20.73;;;4.00;;
12312;SDS011;6220;53.580;9.758;2024-03-17T01:07:19;14.07;;;4.27;;
12312;SDS011;6220;53.580;9.758;2024-03-17T01:09:46;18.27;;;3.83;;
12312;SDS011;6220;53.580;9.758;2024-03-17T01:12:12;10.93;;;3.57;;
12312;SDS011;6220;53.580;9.758;2024-03-17T01:14:37;14.97;;;3.57;;
12312;SDS011;6220;53.580;9.758;2024-03-17T01:17:02;15.07;;;3.50;;
12312;SDS011;6220;53.580;9.758;2024-03-17T01:19:31;14.37;;;3.70;;
12312;SDS011;6220;53.580;9.758;2024-03-17T01:21:57;13.57;;;4.10;;
12312;SDS011;6220;53.580;9.758;2024-03-17T01:24:22;17.07;;;3.93;;
12312;SDS011;6220;53.580;9.758;2024-03-17T01:26:49;18.20;;;3.77;;
12312;SDS011;6220;53.580;9.758;2024-03-17T01:29:15;8.50;;;2.80;;
12312;SDS011;6220;53.580;9.758;2024-03-17T01:31:40;19.80;;;4.37;;
12312;SDS011;6220;53.580;9.758;2024-03-17T01:34:05;13.23;;;3.93;;
12312;SDS011;6220;53.580;9.758;2024-03-17T01:36:31;11.97;;;2.90;;
12312;SDS011;6220;53.580;9.758;2024-03-17T01:38:56;13.43;;;2.97;;
12312;SDS011;6220;53.580;9.758;2024-03-17T01:41:22;12.73;;;3.83;;
12312;SDS011;6220;53.580;9.758;2024-03-17T01:43:47;12.70;;;3.40;;
12312;SDS011;6220;53.580;9.758;2024-03-17T01:46:13;13.13;;;3.90;;
12312;SDS011;6220;53.580;9.758;2024-03-17T01:48:40;13.97;;;3.63;;
12312;SDS011;6220;53.580;9.758;2024-03-17T01:51:05;13.20;;;3.47;;
12312;SDS011;6220;53.580;9.758;2024-03-17T01:53:32;14.63;;;3.93;;
12312;SDS011;6220;53.580;9.758;2024-03-17T01:55:57;18.13;;;5.13;;
12312;SDS011;6220;53.580;9.758;2024-03-17T01:58:27;14.70;;;3.30;;
12312;SDS011;6220;53.580;9.758;2024-03-17T02:00:52;12.73;;;3.93;;
12312;SDS011;6220;53.580;9.758;2024-03-17T02:03:18;10.10;;;3.43;;
12312;SDS011;6220;53.580;9.758;2024-03-17T02:05:44;16.43;;;3.83;;
12312;SDS011;6220;53.580;9.758;2024-03-17T02:08:10;14.77;;;3.70;;
12312;SDS011;6220;53.580;9.758;2024-03-17T02:10:35;14.27;;;4.07;;
12312;SDS011;6220;53.580;9.758;2024-03-17T02:13:01;12.27;;;3.27;;
12312;SDS011;6220;53.580;9.758;2024-03-17T02:15:28;9.73;;;3.57;;
12312;SDS011;6220;53.580;9.758;2024-03-17T02:17:53;12.50;;;3.53;;
12312;SDS011;6220;53.580;9.758;2024-03-17T02:20:19;13.83;;;3.93;;
12312;SDS011;6220;53.580;9.758;2024-03-17T02:22:44;14.37;;;3.83;;
12312;SDS011;6220;53.580;9.758;2024-03-17T02:25:10;15.83;;;3.53;;
12312;SDS011;6220;53.580;9.758;2024-03-17T02:27:35;15.33;;;4.13;;
12312;SDS011;6220;53.580;9.758;2024-03-17T02:30:04;13.70;;;3.60;;
12312;SDS011;6220;53.580;9.758;2024-03-17T02:32:33;17.63;;;4.17;;
12312;SDS011;6220;53.580;9.758;2024-03-17T02:34:59;14.53;;;3.83;;
12312;SDS011;6220;53.580;9.758;2024-03-17T02:37:24;12.80;;;3.93;;
12312;SDS011;6220;53.580;9.758;2024-03-17T02:39:50;15.63;;;4.03;;
12312;SDS011;6220;53.580;9.758;2024-03-17T02:42:15;12.83;;;3.47;;
12312;SDS011;6220;53.580;9.758;2024-03-17T02:44:41;12.17;;;3.83;;
12312;SDS011;6220;53.580;9.758;2024-03-17T02:47:06;12.40;;;3.20;;
12312;SDS011;6220;53.580;9.758;2024-03-17T02:49:34;13.13;;;3.20;;
12312;SDS011;6220;53.580;9.758;2024-03-17T02:52:04;10.33;;;3.27;;
12312;SDS011;6220;53.580;9.758;2024-03-17T02:54:31;15.37;;;3.60;;
12312;SDS011;6220;53.580;9.758;2024-03-17T02:56:58;14.87;;;3.67;;
12312;SDS011;6220;53.580;9.758;2024-03-17T02:59:23;18.47;;;4.77;;
12312;SDS011;6220;53.580;9.758;2024-03-17T03:01:48;12.40;;;3.93;;
12312;SDS011;6220;53.580;9.758;2024-03-17T03:04:14;13.00;;;4.07;;
12312;SDS011;6220;53.580;9.758;2024-03-17T03:06:40;10.27;;;3.47;;
12312;SDS011;6220;53.580;9.758;2024-03-17T03:09:06;13.07;;;3.70;;
12312;SDS011;6220;53.580;9.758;2024-03-17T03:11:37;16.23;;;4.07;;
12312;SDS011;6220;53.580;9.758;2024-03-17T03:14:03;10.23;;;3.27;;
12312;SDS011;6220;53.580;9.758;2024-03-17T03:16:28;13.03;;;3.67;;
12312;SDS011;6220;53.580;9.758;2024-03-17T03:18:53;11.17;;;3.33;;
12312;SDS011;6220;53.580;9.758;2024-03-17T03:21:19;10.20;;;3.10;;
12312;SDS011;6220;53.580;9.758;2024-03-17T03:23:44;9.47;;;3.27;;
12312;SDS011;6220;53.580;9.758;2024-03-17T03:26:09;16.60;;;3.63;;
12312;SDS011;6220;53.580;9.758;2024-03-17T03:28:35;8.67;;;3.27;;
12312;SDS011;6220;53.580;9.758;2024-03-17T03:31:00;11.90;;;3.63;;
12312;SDS011;6220;53.580;9.758;2024-03-17T03:33:27;14.00;;;3.37;;
12312;SDS011;6220;53.580;9.758;2024-03-17T03:35:52;14.10;;;4.07;;
12312;SDS011;6220;53.580;9.758;2024-03-17T03:38:18;13.43;;;3.50;;
12312;SDS011;6220;53.580;9.758;2024-03-17T03:40:44;11.57;;;3.30;;
12312;SDS011;6220;53.580;9.758;2024-03-17T03:43:10;14.47;;;3.60;;
12312;SDS011;6220;53.580;9.758;2024-03-17T03:45:36;14.30;;;4.40;;
12312;SDS011;6220;53.580;9.758;2024-03-17T03:48:02;11.10;;;3.30;;
12312;SDS011;6220;53.580;9.758;2024-03-17T03:50:28;12.80;;;3.70;;
12312;SDS011;6220;53.580;9.758;2024-03-17T03:52:53;13.87;;;3.93;;
12312;SDS011;6220;53.580;9.758;2024-03-17T03:55:19;16.07;;;4.17;;
12312;SDS011;6220;53.580;9.758;2024-03-17T03:57:45;14.40;;;3.97;;
12312;SDS011;6220;53.580;9.758;2024-03-17T04:00:12;13.30;;;3.73;;
12312;SDS011;6220;53.580;9.758;2024-03-17T04:02:43;10.00;;;3.93;;
12312;SDS011;6220;53.580;9.758;2024-03-17T04:05:09;13.43;;;5.20;;
12312;SDS011;6220;53.580;9.758;2024-03-17T04:07:35;11.83;;;3.83;;
12312;SDS011;6220;53.580;9.758;2024-03-17T04:10:01;13.10;;;4.07;;
12312;SDS011;6220;53.580;9.758;2024-03-17T04:12:27;10.07;;;3.50;;
12312;SDS011;6220;53.580;9.758;2024-03-17T04:14:53;15.43;;;4.40;;
12312;SDS011;6220;53.580;9.758;2024-03-17T04:17:20;10.23;;;4.00;;
12312;SDS011;6220;53.580;9.758;2024-03-17T04:19:48;10.77;;;3.50;;
12312;SDS011;6220;53.580;9.758;2024-03-17T04:22:15;16.30;;;4.27;;
12312;SDS011;6220;53.580;9.758;2024-03-17T04:24:41;12.33;;;3.80;;
12312;SDS011;6220;53.580;9.758;2024-03-17T04:27:09;14.37;;;4.30;;
12312;SDS011;6220;53.580;9.758;2024-03-17T04:29:35;9.83;;;4.10;;
12312;SDS011;6220;53.580;9.758;2024-03-17T04:32:00;12.27;;;3.93;;
12312;SDS011;6220;53.580;9.758;2024-03-17T04:34:26;12.47;;;4.27;;
12312;SDS011;6220;53.580;9.758;2024-03-17T04:36:52;12.27;;;3.80;;
12312;SDS011;6220;53.580;9.758;2024-03-17T04:39:18;12.57;;;3.50;;
12312;SDS011;6220;53.580;9.758;2024-03-17T04:41:44;14.87;;;4.50;;
12312;SDS011;6220;53.580;9.758;2024-03-17T04:44:10;15.83;;;4.30;;
12312;SDS011;6220;53.580;9.758;2024-03-17T04:46:35;13.67;;;4.73;;
12312;SDS011;6220;53.580;9.758;2024-03-17T04:49:01;14.30;;;4.40;;
12312;SDS011;6220;53.580;9.758;2024-03-17T04:51:28;14.77;;;4.83;;
12312;SDS011;6220;53.580;9.758;2024-03-17T04:53:54;11.07;;;3.70;;
12312;SDS011;6220;53.580;9.758;2024-03-17T04:56:19;15.33;;;4.20;;
12312;SDS011;6220;53.580;9.758;2024-03-17T04:58:44;11.23;;;4.03;;
12312;SDS011;6220;53.580;9.758;2024-03-17T05:01:10;15.03;;;5.00;;
12312;SDS011;6220;53.580;9.758;2024-03-17T05:03:35;16.73;;;4.47;;
12312;SDS011;6220;53.580;9.758;2024-03-17T05:06:01;15.57;;;4.87;;
12312;SDS011;6220;53.580;9.758;2024-03-17T05:08:27;14.60;;;5.00;;
12312;SDS011;6220;53.580;9.758;2024-03-17T05:10:57;12.40;;;4.17;;
12312;SDS011;6220;53.580;9.758;2024-03-17T05:13:23;11.27;;;4.40;;
12312;SDS011;6220;53.580;9.758;2024-03-17T05:15:49;12.67;;;4.33;;
12312;SDS011;6220;53.580;9.758;2024-03-17T05:18:15;14.30;;;4.73;;
12312;SDS011;6220;53.580;9.758;2024-03-17T05:20:42;17.70;;;5.17;;
12312;SDS011;6220;53.580;9.758;2024-03-17T05:23:07;16.33;;;4.43;;
12312;SDS011;6220;53.580;9.758;2024-03-17T05:25:32;10.00;;;4.27;;
12312;SDS011;6220;53.580;9.758;2024-03-17T05:28:01;9.67;;;4.43;;
12312;SDS011;6220;53.580;9.758;2024-03-17T05:30:27;15.77;;;5.03;;
12312;SDS011;6220;53.580;9.758;2024-03-17T05:32:52;14.33;;;4.77;;
12312;SDS011;6220;53.580;9.758;2024-03-17T05:35:17;16.90;;;4.93;;
12312;SDS011;6220;53.580;9.758;2024-03-17T05:37:43;13.07;;;4.23;;
12312;SDS011;6220;53.580;9.758;2024-03-17T05:40:09;17.77;;;4.60;;
12312;SDS011;6220;53.580;9.758;2024-03-17T05:42:37;12.43;;;4.30;;
12312;SDS011;6220;53.580;9.758;2024-03-17T05:45:02;11.80;;;4.97;;
12312;SDS011;6220;53.580;9.758;2024-03-17T05:47:28;12.03;;;4.17;;
12312;SDS011;6220;53.580;9.758;2024-03-17T05:49:54;10.83;;;4.60;;
12312;SDS011;6220;53.580;9.758;2024-03-17T05:52:20;19.90;;;5.10;;
12312;SDS011;6220;53.580;9.758;2024-03-17T05:54:46;11.40;;;4.40;;
12312;SDS011;6220;53.580;9.758;2024-03-17T05:57:12;7.33;;;3.90;;
12312;SDS011;6220;53.580;9.758;2024-03-17T05:59:38;17.37;;;4.73;;
12312;SDS011;6220;53.580;9.758;2024-03-17T06:02:04;11.07;;;4.60;;
12312;SDS011;6220;53.580;9.758;2024-03-17T06:04:29;13.53;;;4.03;;
12312;SDS011;6220;53.580;9.758;2024-03-17T06:06:55;11.93;;;4.03;;
12312;SDS011;6220;53.580;9.758;2024-03-17T06:09:20;12.03;;;4.47;;
12312;SDS011;6220;53.580;9.758;2024-03-17T06:11:46;14.23;;;4.40;;
12312;SDS011;6220;53.580;9.758;2024-03-17T06:14:11;9.17;;;3.77;;
12312;SDS011;6220;53.580;9.758;2024-03-17T06:16:38;10.60;;;4.00;;
12312;SDS011;6220;53.580;9.758;2024-03-17T06:19:03;17.13;;;5.33;;
12312;SDS011;6220;53.580;9.758;2024-03-17T06:21:28;17.80;;;5.40;;
12312;SDS011;6220;53.580;9.758;2024-03-17T06:23:54;17.63;;;4.90;;
12312;SDS011;6220;53.580;9.758;2024-03-17T06:26:19;19.07;;;5.80;;
12312;SDS011;6220;53.580;9.758;2024-03-17T06:28:45;19.57;;;5.77;;
12312;SDS011;6220;53.580;9.758;2024-03-17T06:31:11;20.37;;;5.27;;
12312;SDS011;6220;53.580;9.758;2024-03-17T06:33:36;19.70;;;4.83;;
12312;SDS011;6220;53.580;9.758;2024-03-17T06:36:02;12.60;;;4.43;;
12312;SDS011;6220;53.580;9.758;2024-03-17T06:38:32;15.33;;;4.73;;
12312;SDS011;6220;53.580;9.758;2024-03-17T06:40:57;12.67;;;5.53;;
12312;SDS011;6220;53.580;9.758;2024-03-17T06:43:22;12.03;;;5.33;;
12312;SDS011;6220;53.580;9.758;2024-03-17T06:45:54;15.30;;;6.20;;
12312;SDS011;6220;53.580;9.758;2024-03-17T06:48:23;13.33;;;6.40;;
12312;SDS011;6220;53.580;9.758;2024-03-17T06:50:52;13.70;;;5.70;;
12312;SDS011;6220;53.580;9.758;2024-03-17T06:53:19;11.70;;;5.30;;
12312;SDS011;6220;53.580;9.758;2024-03-17T06:55:51;10.30;;;5.00;;
12312;SDS011;6220;53.580;9.758;2024-03-17T06:58:26;14.13;;;5.63;;
12312;SDS011;6220;53.580;9.758;2024-03-17T07:01:01;11.97;;;5.10;;
12312;SDS011;6220;53.580;9.758;2024-03-17T07:03:28;14.03;;;5.37;;
12312;SDS011;6220;53.580;9.758;2024-03-17T07:05:55;12.60;;;4.97;;
12312;SDS011;6220;53.580;9.758;2024-03-17T07:08:21;17.07;;;5.60;;
12312;SDS011;6220;53.580;9.758;2024-03-17T07:13:35;13.50;;;5.17;;
12312;SDS011;6220;53.580;9.758;2024-03-17T07:16:02;11.87;;;5.07;;
12312;SDS011;6220;53.580;9.758;2024-03-17T07:18:28;13.27;;;5.00;;
12312;SDS011;6220;53.580;9.758;2024-03-17T07:20:57;13.20;;;4.33;;
12312;SDS011;6220;53.580;9.758;2024-03-17T07:23:23;14.33;;;4.93;;
12312;SDS011;6220;53.580;9.758;2024-03-17T07:25:52;13.37;;;3.73;;
12312;SDS011;6220;53.580;9.758;2024-03-17T07:28:19;12.60;;;4.27;;
12312;SDS011;6220;53.580;9.758;2024-03-17T07:30:48;10.13;;;3.70;;
12312;SDS011;6220;53.580;9.758;2024-03-17T07:33:23;13.63;;;4.00;;
12312;SDS011;6220;53.580;9.758;2024-03-17T07:35:49;10.50;;;3.70;;
12312;SDS011;6220;53.580;9.758;2024-03-17T07:38:18;12.80;;;4.23;;
12312;SDS011;6220;53.580;9.758;2024-03-17T07:40:44;13.00;;;3.60;;
12312;SDS011;6220;53.580;9.758;2024-03-17T07:43:10;13.93;;;3.73;;
12312;SDS011;6220;53.580;9.758;2024-03-17T07:45:35;11.87;;;3.83;;
12312;SDS011;6220;53.580;9.758;2024-03-17T07:48:01;14.10;;;4.13;;
12312;SDS011;6220;53.580;9.758;2024-03-17T07:50:26;17.87;;;4.67;;
12312;SDS011;6220;53.580;9.758;2024-03-17T07:52:52;16.07;;;4.17;;
12312;SDS011;6220;53.580;9.758;2024-03-17T07:55:17;9.23;;;3.67;;
12312;SDS011;6220;53.580;9.758;2024-03-17T07:57:42;11.27;;;3.40;;
12312;SDS011;6220;53.580;9.758;2024-03-17T08:00:08;9.47;;;3.17;;
12312;SDS011;6220;53.580;9.758;2024-03-17T08:02:46;13.63;;;3.63;;
12312;SDS011;6220;53.580;9.758;2024-03-17T08:05:11;11.17;;;3.47;;
12312;SDS011;6220;53.580;9.758;2024-03-17T08:07:37;12.73;;;3.40;;
12312;SDS011;6220;53.580;9.758;2024-03-17T08:10:03;10.63;;;3.57;;
12312;SDS011;6220;53.580;9.758;2024-03-17T08:12:29;12.57;;;3.57;;
12312;SDS011;6220;53.580;9.758;2024-03-17T08:14:54;10.27;;;3.23;;
12312;SDS011;6220;53.580;9.758;2024-03-17T08:17:20;13.13;;;3.47;;
12312;SDS011;6220;53.580;9.758;2024-03-17T08:19:45;12.50;;;3.43;;
12312;SDS011;6220;53.580;9.758;2024-03-17T08:22:10;12.37;;;3.67;;
12312;SDS011;6220;53.580;9.758;2024-03-17T08:24:36;16.87;;;3.50;;
12312;SDS011;6220;53.580;9.758;2024-03-17T08:27:04;11.93;;;3.33;;
12312;SDS011;6220;53.580;9.758;2024-03-17T08:29:29;12.73;;;3.07;;
12312;SDS011;6220;53.580;9.758;2024-03-17T08:31:55;13.93;;;3.30;;
12312;SDS011;6220;53.580;9.758;2024-03-17T08:34:21;10.30;;;2.60;;
12312;SDS011;6220;53.580;9.758;2024-03-17T08:36:46;8.23;;;2.50;;
12312;SDS011;6220;53.580;9.758;2024-03-17T08:39:12;12.23;;;3.03;;
12312;SDS011;6220;53.580;9.758;2024-03-17T08:41:37;9.33;;;2.87;;
12312;SDS011;6220;53.580;9.758;2024-03-17T08:44:02;10.77;;;2.50;;
12312;SDS011;6220;53.580;9.758;2024-03-17T08:46:27;10.80;;;2.30;;
12312;SDS011;6220;53.580;9.758;2024-03-17T08:48:53;11.13;;;2.87;;
12312;SDS011;6220;53.580;9.758;2024-03-17T08:51:18;6.00;;;2.37;;
12312;SDS011;6220;53.580;9.758;2024-03-17T08:53:44;8.93;;;2.37;;
12312;SDS011;6220;53.580;9.758;2024-03-17T08:56:10;7.70;;;2.30;;
12312;SDS011;6220;53.580;9.758;2024-03-17T08:58:35;7.27;;;2.60;;
12312;SDS011;6220;53.580;9.758;2024-03-17T09:01:04;9.43;;;2.43;;
12312;SDS011;6220;53.580;9.758;2024-03-17T09:03:31;6.60;;;1.87;;
12312;SDS011;6220;53.580;9.758;2024-03-17T09:05:57;10.73;;;2.53;;
12312;SDS011;6220;53.580;9.758;2024-03-17T09:08:23;6.20;;;2.10;;
12312;SDS011;6220;53.580;9.758;2024-03-17T09:10:49;8.30;;;2.67;;
12312;SDS011;6220;53.580;9.758;2024-03-17T09:13:16;8.43;;;2.20;;
12312;SDS011;6220;53.580;9.758;2024-03-17T09:15:55;11.83;;;2.67;;
12312;SDS011;6220;53.580;9.758;2024-03-17T09:18:21;6.30;;;2.30;;
12312;SDS011;6220;53.580;9.758;2024-03-17T09:20:55;6.40;;;1.90;;
12312;SDS011;6220;53.580;9.758;2024-03-17T09:23:30;6.67;;;2.17;;
12312;SDS011;6220;53.580;9.758;2024-03-17T09:25:59;13.30;;;2.47;;
12312;SDS011;6220;53.580;9.758;2024-03-17T09:28:26;9.20;;;2.30;;
12312;SDS011;6220;53.580;9.758;2024-03-17T09:30:52;6.90;;;2.23;;
12312;SDS011;6220;53.580;9.758;2024-03-17T09:33:24;7.57;;;2.30;;
12312;SDS011;6220;53.580;9.758;2024-03-17T09:35:57;10.03;;;2.60;;
12312;SDS011;6220;53.580;9.758;2024-03-17T09:38:23;7.07;;;2.33;;
12312;SDS011;6220;53.580;9.758;2024-03-17T09:40:48;6.93;;;2.10;;
12312;SDS011;6220;53.580;9.758;2024-03-17T09:43:17;7.73;;;2.20;;
12312;SDS011;6220;53.580;9.758;2024-03-17T09:45:43;8.93;;;2.20;;
12312;SDS011;6220;53.580;9.758;2024-03-17T09:48:09;8.53;;;2.60;;
12312;SDS011;6220;53.580;9.758;2024-03-17T09:50:39;6.17;;;2.10;;
12312;SDS011;6220;53.580;9.758;2024-03-17T09:53:05;7.73;;;2.20;;
12312;SDS011;6220;53.580;9.758;2024-03-17T09:55:30;9.10;;;1.80;;
12312;SDS011;6220;53.580;9.758;2024-03-17T09:57:55;7.60;;;2.23;;
12312;SDS011;6220;53.580;9.758;2024-03-17T10:00:21;8.57;;;1.90;;
12312;SDS011;6220;53.580;9.758;2024-03-17T10:02:46;5.00;;;1.70;;
12312;SDS011;6220;53.580;9.758;2024-03-17T10:05:19;6.00;;;1.70;;
12312;SDS011;6220;53.580;9.758;2024-03-17T10:07:46;7.87;;;1.83;;
12312;SDS011;6220;53.580;9.758;2024-03-17T10:10:12;7.87;;;2.40;;
12312;SDS011;6220;53.580;9.758;2024-03-17T10:12:37;11.07;;;2.37;;
12312;SDS011;6220;53.580;9.758;2024-03-17T10:15:03;11.07;;;2.30;;
12312;SDS011;6220;53.580;9.758;2024-03-17T10:17:32;7.07;;;1.93;;
12312;SDS011;6220;53.580;9.758;2024-03-17T10:20:11;5.53;;;1.80;;
12312;SDS011;6220;53.580;9.758;2024-03-17T10:23:02;7.33;;;1.87;;
12312;SDS011;6220;53.580;9.758;2024-03-17T10:25:29;7.47;;;2.03;;
12312;SDS011;6220;53.580;9.758;2024-03-17T10:27:56;5.77;;;2.00;;
12312;SDS011;6220;53.580;9.758;2024-03-17T10:30:30;5.67;;;1.90;;
12312;SDS011;6220;53.580;9.758;2024-03-17T10:32:59;7.13;;;2.10;;
12312;SDS011;6220;53.580;9.758;2024-03-17T10:35:30;8.07;;;2.13;;
12312;SDS011;6220;53.580;9.758;2024-03-17T10:37:57;4.87;;;1.90;;
12312;SDS011;6220;53.580;9.758;2024-03-17T10:40:24;6.43;;;2.43;;
12312;SDS011;6220;53.580;9.758;2024-03-17T10:42:50;7.03;;;2.33;;
12312;SDS011;6220;53.580;9.758;2024-03-17T10:45:16;8.17;;;2.03;;
12312;SDS011;6220;53.580;9.758;2024-03-17T10:47:43;5.33;;;1.77;;
12312;SDS011;6220;53.580;9.758;2024-03-17T10:50:16;7.50;;;1.63;;
12312;SDS011;6220;53.580;9.758;2024-03-17T10:52:47;7.10;;;1.60;;
12312;SDS011;6220;53.580;9.758;2024-03-17T10:55:23;5.67;;;1.90;;
12312;SDS011;6220;53.580;9.758;2024-03-17T10:57:50;6.80;;;2.20;;
12312;SDS011;6220;53.580;9.758;2024-03-17T11:00:23;3.73;;;1.60;;
12312;SDS011;6220;53.580;9.758;2024-03-17T11:02:54;5.87;;;2.10;;
12312;SDS011;6220;53.580;9.758;2024-03-17T11:05:25;6.43;;;2.10;;
12312;SDS011;6220;53.580;9.758;2024-03-17T11:07:56;5.40;;;1.90;;
12312;SDS011;6220;53.580;9.758;2024-03-17T11:10:27;8.83;;;2.20;;
12312;SDS011;6220;53.580;9.758;2024-03-17T11:12:59;4.43;;;1.50;;
12312;SDS011;6220;53.580;9.758;2024-03-17T11:20:35;5.53;;;1.73;;
12312;SDS011;6220;53.580;9.758;2024-03-17T11:23:04;6.73;;;1.97;;
12312;SDS011;6220;53.580;9.758;2024-03-17T11:28:02;3.90;;;1.60;;
12312;SDS011;6220;53.580;9.758;2024-03-17T11:38:55;10.53;;;2.70;;
12312;SDS011;6220;53.580;9.758;2024-03-17T11:49:25;6.00;;;2.37;;
12312;SDS011;6220;53.580;9.758;2024-03-17T11:51:56;5.63;;;2.40;;
12312;SDS011;6220;53.580;9.758;2024-03-17T11:54:27;8.93;;;2.33;;
12312;SDS011;6220;53.580;9.758;2024-03-17T11:56:55;9.73;;;2.40;;
12312;SDS011;6220;53.580;9.758;2024-03-17T11:59:28;4.97;;;1.87;;
12312;SDS011;6220;53.580;9.758;2024-03-17T12:01:54;3.97;;;1.97;;
12312;SDS011;6220;53.580;9.758;2024-03-17T12:04:21;5.10;;;2.30;;
12312;SDS011;6220;53.580;9.758;2024-03-17T12:09:17;6.20;;;2.53;;
12312;SDS011;6220;53.580;9.758;2024-03-17T12:12:05;8.33;;;3.00;;
12312;SDS011;6220;53.580;9.758;2024-03-17T12:14:32;5.43;;;2.70;;
12312;SDS011;6220;53.580;9.758;2024-03-17T12:17:01;8.70;;;2.30;;
12312;SDS011;6220;53.580;9.758;2024-03-17T12:19:28;6.57;;;2.60;;
12312;SDS011;6220;53.580;9.758;2024-03-17T12:22:00;6.55;;;2.60;;
12312;SDS011;6220;53.580;9.758;2024-03-17T12:24:29;6.35;;;2.90;;
12312;SDS011;6220;53.580;9.758;2024-03-17T12:26:59;6.32;;;2.65;;
12312;SDS011;6220;53.580;9.758;2024-03-17T12:32:01;10.25;;;4.00;;
12312;SDS011;6220;53.580;9.758;2024-03-17T12:34:31;6.82;;;2.85;;
12312;SDS011;6220;53.580;9.758;2024-03-17T12:36:57;6.75;;;3.30;;
12312;SDS011;6220;53.580;9.758;2024-03-17T12:39:27;7.20;;;2.60;;
12312;SDS011;6220;53.580;9.758;2024-03-17T12:42:07;5.50;;;2.70;;
12312;SDS011;6220;53.580;9.758;2024-03-17T12:44:34;7.38;;;3.40;;
12312;SDS011;6220;53.580;9.758;2024-03-17T12:47:06;8.87;;;3.20;;
12312;SDS011;6220;53.580;9.758;2024-03-17T12:49:33;6.77;;;2.90;;
12312;SDS011;6220;53.580;9.758;2024-03-17T12:52:01;7.23;;;2.73;;
12312;SDS011;6220;53.580;9.758;2024-03-17T12:54:27;7.10;;;2.87;;
12312;SDS011;6220;53.580;9.758;2024-03-17T12:57:03;8.07;;;2.70;;
12312;SDS011;6220;53.580;9.758;2024-03-17T12:59:48;6.77;;;2.90;;
12312;SDS011;6220;53.580;9.758;2024-03-17T13:02:32;7.70;;;2.73;;
12312;SDS011;6220;53.580;9.758;2024-03-17T13:05:07;9.67;;;2.90;;
12312;SDS011;6220;53.580;9.758;2024-03-17T13:07:32;7.00;;;2.53;;
12312;SDS011;6220;53.580;9.758;2024-03-17T13:09:58;5.17;;;2.53;;
12312;SDS011;6220;53.580;9.758;2024-03-17T13:12:23;9.10;;;3.43;;
12312;SDS011;6220;53.580;9.758;2024-03-17T13:14:48;7.83;;;2.83;;
12312;SDS011;6220;53.580;9.758;2024-03-17T13:17:14;7.30;;;2.80;;
12312;SDS011;6220;53.580;9.758;2024-03-17T13:19:45;8.73;;;2.87;;
12312;SDS011;6220;53.580;9.758;2024-03-17T13:22:11;6.90;;;2.73;;
12312;SDS011;6220;53.580;9.758;2024-03-17T13:24:36;8.97;;;3.00;;
12312;SDS011;6220;53.580;9.758;2024-03-17T13:27:04;8.50;;;3.10;;
12312;SDS011;6220;53.580;9.758;2024-03-17T13:29:31;5.93;;;2.50;;
12312;SDS011;6220;53.580;9.758;2024-03-17T13:32:01;9.33;;;2.77;;
12312;SDS011;6220;53.580;9.758;2024-03-17T13:34:27;8.50;;;2.90;;
12312;SDS011;6220;53.580;9.758;2024-03-17T13:36:53;8.23;;;3.10;;
12312;SDS011;6220;53.580;9.758;2024-03-17T13:39:19;8.97;;;3.20;;
12312;SDS011;6220;53.580;9.758;2024-03-17T13:41:46;6.77;;;3.10;;
12312;SDS011;6220;53.580;9.758;2024-03-17T13:44:12;7.70;;;2.80;;
12312;SDS011;6220;53.580;9.758;2024-03-17T13:46:37;6.20;;;2.63;;
12312;SDS011;6220;53.580;9.758;2024-03-17T13:49:08;8.30;;;2.80;;
12312;SDS011;6220;53.580;9.758;2024-03-17T13:51:34;6.00;;;2.17;;
12312;SDS011;6220;53.580;9.758;2024-03-17T13:53:59;6.30;;;2.63;;
12312;SDS011;6220;53.580;9.758;2024-03-17T13:56:25;8.23;;;2.97;;
12312;SDS011;6220;53.580;9.758;2024-03-17T13:58:51;8.60;;;2.97;;
12312;SDS011;6220;53.580;9.758;2024-03-17T14:01:17;7.17;;;2.60;;
12312;SDS011;6220;53.580;9.758;2024-03-17T14:03:42;9.70;;;3.60;;
12312;SDS011;6220;53.580;9.758;2024-03-17T14:06:08;7.17;;;2.77;;
12312;SDS011;6220;53.580;9.758;2024-03-17T14:08:34;5.83;;;2.30;;
12312;SDS011;6220;53.580;9.758;2024-03-17T14:11:00;7.33;;;2.60;;
12312;SDS011;6220;53.580;9.758;2024-03-17T14:13:26;8.00;;;2.60;;
12312;SDS011;6220;53.580;9.758;2024-03-17T14:15:51;7.37;;;2.70;;
12312;SDS011;6220;53.580;9.758;2024-03-17T14:18:16;6.93;;;2.73;;
12312;SDS011;6220;53.580;9.758;2024-03-17T14:20:42;8.00;;;2.37;;
12312;SDS011;6220;53.580;9.758;2024-03-17T14:23:07;8.40;;;2.70;;
12312;SDS011;6220;53.580;9.758;2024-03-17T14:25:34;8.93;;;2.73;;
12312;SDS011;6220;53.580;9.758;2024-03-17T14:27:59;5.17;;;2.40;;
12312;SDS011;6220;53.580;9.758;2024-03-17T14:30:25;7.23;;;3.17;;
12312;SDS011;6220;53.580;9.758;2024-03-17T14:32:51;9.70;;;2.73;;
12312;SDS011;6220;53.580;9.758;2024-03-17T14:35:17;7.93;;;2.30;;
12312;SDS011;6220;53.580;9.758;2024-03-17T14:37:43;9.83;;;2.60;;
12312;SDS011;6220;53.580;9.758;2024-03-17T14:40:12;8.60;;;2.27;;
12312;SDS011;6220;53.580;9.758;2024-03-17T14:42:45;9.40;;;2.53;;
12312;SDS011;6220;53.580;9.758;2024-03-17T14:45:10;6.57;;;2.50;;
12312;SDS011;6220;53.580;9.758;2024-03-17T14:47:36;9.57;;;2.57;;
12312;SDS011;6220;53.580;9.758;2024-03-17T14:50:01;6.70;;;2.43;;
12312;SDS011;6220;53.580;9.758;2024-03-17T14:52:28;8.73;;;3.00;;
12312;SDS011;6220;53.580;9.758;2024-03-17T14:54:54;9.67;;;2.97;;
12312;SDS011;6220;53.580;9.758;2024-03-17T14:57:21;7.40;;;2.53;;
12312;SDS011;6220;53.580;9.758;2024-03-17T14:59:47;5.77;;;2.70;;
12312;SDS011;6220;53.580;9.758;2024-03-17T15:02:13;8.40;;;2.73;;
12312;SDS011;6220;53.580;9.758;2024-03-17T15:04:39;11.53;;;3.10;;
12312;SDS011;6220;53.580;9.758;2024-03-17T15:07:04;9.47;;;3.00;;
12312;SDS011;6220;53.580;9.758;2024-03-17T15:09:30;7.97;;;2.70;;
12312;SDS011;6220;53.580;9.758;2024-03-17T15:11:57;6.97;;;2.77;;
12312;SDS011;6220;53.580;9.758;2024-03-17T15:14:23;9.93;;;3.27;;
12312;SDS011;6220;53.580;9.758;2024-03-17T15:16:49;7.90;;;2.33;;
12312;SDS011;6220;53.580;9.758;2024-03-17T15:19:14;7.97;;;2.77;;
12312;SDS011;6220;53.580;9.758;2024-03-17T15:21:40;9.77;;;2.80;;
12312;SDS011;6220;53.580;9.758;2024-03-17T15:24:05;8.83;;;2.83;;